sensor_id;sensor_type;location;lat;lon;timestamp;pressure;altitude;pressure_sealevel;temperature;humidity
6668;BME280;3370;47.712;9.082;2024-01-10T00:02:25;97725.88;;;-3.36;93.82
6668;BME280;3370;47.712;9.082;2024-01-10T00:04:51;97728.28;;;-3.42;94.34
6668;BME280;3370;47.712;9.082;2024-01-10T00:07:17;97730.97;;;-3.33;93.82
6668;BME280;3370;47.712;9.082;2024-01-10T00:09:43;97734.09;;;-3.43;93.98
6668;BME280;3370;47.712;9.082;2024-01-10T00:12:09;97728.97;;;-3.49;95.24
6668;BME280;3370;47.712;9.082;2024-01-10T00:14:35;97730.72;;;-3.45;94.77
6668;BME280;3370;47.712;9.082;2024-01-10T00:17:01;97726.28;;;-3.57;95.98
6668;BME280;3370;47.712;9.082;2024-01-10T00:19:27;97729.53;;;-3.61;97.43
6668;BME280;3370;47.712;9.082;2024-01-10T00:21:53;97720.38;;;-3.57;96.74
6668;BME280;3370;47.712;9.082;2024-01-10T00:24:18;97717.88;;;-3.57;97.32
6668;BME280;3370;47.712;9.082;2024-01-10T00:26:44;97726.34;;;-3.54;97.47
6668;BME280;3370;47.712;9.082;2024-01-10T00:29:10;97725.22;;;-3.67;98.59
6668;BME280;3370;47.712;9.082;2024-01-10T00:31:36;97715.25;;;-3.63;99.12
6668;BME280;3370;47.712;9.082;2024-01-10T00:34:01;97716.97;;;-3.62;99.46
6668;BME280;3370;47.712;9.082;2024-01-10T00:36:27;97720.53;;;-3.51;99.29
6668;BME280;3370;47.712;9.082;2024-01-10T00:38:53;97721.50;;;-3.44;98.27
6668;BME280;3370;47.712;9.082;2024-01-10T00:41:18;97718.88;;;-3.51;98.67
6668;BME280;3370;47.712;9.082;2024-01-10T00:43:44;97721.44;;;-3.48;98.50
6668;BME280;3370;47.712;9.082;2024-01-10T00:46:10;97718.91;;;-3.49;97.13
6668;BME280;3370;47.712;9.082;2024-01-10T00:48:36;97717.88;;;-3.57;97.95
6668;BME280;3370;47.712;9.082;2024-01-10T00:51:01;97718.91;;;-3.49;98.50
6668;BME280;3370;47.712;9.082;2024-01-10T00:53:27;97725.56;;;-3.51;98.47
6668;BME280;3370;47.712;9.082;2024-01-10T00:55:53;97718.06;;;-3.48;98.80
6668;BME280;3370;47.712;9.082;2024-01-10T00:58:19;97717.91;;;-3.56;98.76
6668;BME280;3370;47.712;9.082;2024-01-10T01:00:45;97724.50;;;-3.61;99.57
6668;BME280;3370;47.712;9.082;2024-01-10T01:03:10;97717.91;;;-3.56;99.75
6668;BME280;3370;47.712;9.082;2024-01-10T01:05:36;97719.59;;;-3.56;99.45
6668;BME280;3370;47.712;9.082;2024-01-10T01:08:02;97715.38;;;-3.57;99.71
6668;BME280;3370;47.712;9.082;2024-01-10T01:10:28;97717.88;;;-3.57;99.90
6668;BME280;3370;47.712;9.082;2024-01-10T01:12:54;97723.94;;;-3.49;100.00
6668;BME280;3370;47.712;9.082;2024-01-10T01:15:19;97722.19;;;-3.53;99.86
6668;BME280;3370;47.712;9.082;2024-01-10T01:17:45;97722.22;;;-3.50;99.66
6668;BME280;3370;47.712;9.082;2024-01-10T01:20:11;97725.47;;;-3.56;99.78
6668;BME280;3370;47.712;9.082;2024-01-10T01:22:37;97725.69;;;-3.45;100.00
6668;BME280;3370;47.712;9.082;2024-01-10T01:25:02;97724.06;;;-3.43;100.00
6668;BME280;3370;47.712;9.082;2024-01-10T01:27:28;97720.66;;;-3.45;99.96
6668;BME280;3370;47.712;9.082;2024-01-10T01:29:54;97715.88;;;-3.33;98.89
6668;BME280;3370;47.712;9.082;2024-01-10T01:32:20;97718.38;;;-3.34;97.85
6668;BME280;3370;47.712;9.082;2024-01-10T01:34:46;97727.66;;;-3.32;96.35
6668;BME280;3370;47.712;9.082;2024-01-10T01:37:11;97730.94;;;-3.34;96.30
6668;BME280;3370;47.712;9.082;2024-01-10T01:39:37;97722.22;;;-3.50;97.26
6668;BME280;3370;47.712;9.082;2024-01-10T01:42:03;97719.59;;;-3.56;99.23
6668;BME280;3370;47.712;9.082;2024-01-10T01:44:29;97723.03;;;-3.53;99.15
6668;BME280;3370;47.712;9.082;2024-01-10T01:46:55;97719.75;;;-3.49;98.43
6668;BME280;3370;47.712;9.082;2024-01-10T01:49:21;97722.19;;;-3.53;98.79
6668;BME280;3370;47.712;9.082;2024-01-10T01:51:47;97721.44;;;-3.48;98.28
6668;BME280;3370;47.712;9.082;2024-01-10T01:54:13;97722.22;;;-3.50;97.38
6668;BME280;3370;47.712;9.082;2024-01-10T01:56:40;97721.41;;;-3.49;98.15
6668;BME280;3370;47.712;9.082;2024-01-10T01:59:06;97720.47;;;-3.54;98.20
6668;BME280;3370;47.712;9.082;2024-01-10T02:01:32;97717.63;;;-3.70;99.78
6668;BME280;3370;47.712;9.082;2024-01-10T02:04:00;97711.78;;;-3.69;100.00
6668;BME280;3370;47.712;9.082;2024-01-10T02:06:26;97713.53;;;-3.64;100.00
6668;BME280;3370;47.712;9.082;2024-01-10T02:08:52;97711.06;;;-3.63;100.00
6668;BME280;3370;47.712;9.082;2024-01-10T02:11:19;97714.44;;;-3.61;100.00
6668;BME280;3370;47.712;9.082;2024-01-10T02:13:46;97715.56;;;-3.48;99.88
6668;BME280;3370;47.712;9.082;2024-01-10T02:16:12;97710.53;;;-3.48;100.00
6668;BME280;3370;47.712;9.082;2024-01-10T02:18:38;97715.50;;;-3.51;100.00
6668;BME280;3370;47.712;9.082;2024-01-10T02:21:04;97711.50;;;-3.41;99.29
6668;BME280;3370;47.712;9.082;2024-01-10T02:23:30;97708.00;;;-3.48;98.97
6668;BME280;3370;47.712;9.082;2024-01-10T02:25:55;97708.78;;;-3.52;99.37
6668;BME280;3370;47.712;9.082;2024-01-10T02:28:21;97708.13;;;-3.43;98.47
6668;BME280;3370;47.712;9.082;2024-01-10T02:30:50;97706.94;;;-3.59;98.90
6668;BME280;3370;47.712;9.082;2024-01-10T02:33:16;97704.47;;;-3.58;98.70
6668;BME280;3370;47.712;9.082;2024-01-10T02:35:42;97696.72;;;-3.67;99.81
6668;BME280;3370;47.712;9.082;2024-01-10T02:38:07;97703.44;;;-3.68;100.00
6668;BME280;3370;47.712;9.082;2024-01-10T02:40:33;97709.50;;;-3.58;100.00
6668;BME280;3370;47.712;9.082;2024-01-10T02:42:59;97705.91;;;-3.69;100.00
6668;BME280;3370;47.712;9.082;2024-01-10T02:45:25;97713.50;;;-3.68;100.00
6668;BME280;3370;47.712;9.082;2024-01-10T02:47:50;97699.31;;;-3.64;100.00
6668;BME280;3370;47.712;9.082;2024-01-10T02:50:16;97696.06;;;-3.60;100.00
6668;BME280;3370;47.712;9.082;2024-01-10T02:52:42;97694.28;;;-3.64;100.00
6668;BME280;3370;47.712;9.082;2024-01-10T02:55:08;97694.38;;;-3.59;100.00
6668;BME280;3370;47.712;9.082;2024-01-10T02:57:34;97696.97;;;-3.56;100.00
6668;BME280;3370;47.712;9.082;2024-01-10T02:59:59;97692.81;;;-3.54;100.00
6668;BME280;3370;47.712;9.082;2024-01-10T03:02:25;97694.56;;;-3.50;100.00
6668;BME280;3370;47.712;9.082;2024-01-10T03:04:51;97685.34;;;-3.51;100.00
6668;BME280;3370;47.712;9.082;2024-01-10T03:07:17;97692.81;;;-3.54;100.00
6668;BME280;3370;47.712;9.082;2024-01-10T03:09:43;97683.63;;;-3.52;100.00
6668;BME280;3370;47.712;9.082;2024-01-10T03:12:10;97680.97;;;-3.60;100.00
6668;BME280;3370;47.712;9.082;2024-01-10T03:14:36;97682.63;;;-3.60;100.00
6668;BME280;3370;47.712;9.082;2024-01-10T03:17:02;97695.25;;;-3.57;100.00
6668;BME280;3370;47.712;9.082;2024-01-10T03:19:28;97689.50;;;-3.53;100.00
6668;BME280;3370;47.712;9.082;2024-01-10T03:21:54;97682.19;;;-3.41;100.00
6668;BME280;3370;47.712;9.082;2024-01-10T03:24:20;97694.50;;;-3.55;100.00
6668;BME280;3370;47.712;9.082;2024-01-10T03:26:45;97680.50;;;-3.42;100.00
6668;BME280;3370;47.712;9.082;2024-01-10T03:29:11;97685.34;;;-3.51;99.94
6668;BME280;3370;47.712;9.082;2024-01-10T03:31:37;97692.88;;;-3.51;100.00
6668;BME280;3370;47.712;9.082;2024-01-10T03:34:03;97691.09;;;-3.57;100.00
6668;BME280;3370;47.712;9.082;2024-01-10T03:36:29;97696.97;;;-3.56;100.00
6668;BME280;3370;47.712;9.082;2024-01-10T03:38:55;97691.16;;;-3.52;100.00
6668;BME280;3370;47.712;9.082;2024-01-10T03:41:21;97688.81;;;-3.44;100.00
6668;BME280;3370;47.712;9.082;2024-01-10T03:43:47;97698.72;;;-3.52;99.88
6668;BME280;3370;47.712;9.082;2024-01-10T03:46:13;97697.66;;;-3.63;100.00
6668;BME280;3370;47.712;9.082;2024-01-10T03:48:39;97698.53;;;-3.61;100.00
6668;BME280;3370;47.712;9.082;2024-01-10T03:51:18;97691.81;;;-3.62;100.00
6668;BME280;3370;47.712;9.082;2024-01-10T03:53:45;97696.19;;;-3.52;100.00
6668;BME280;3370;47.712;9.082;2024-01-10T03:56:12;97695.31;;;-3.54;99.73
6668;BME280;3370;47.712;9.082;2024-01-10T03:58:38;97698.69;;;-3.55;99.74
6668;BME280;3370;47.712;9.082;2024-01-10T04:01:10;97706.81;;;-3.66;100.00
6668;BME280;3370;47.712;9.082;2024-01-10T04:03:36;97700.72;;;-3.75;100.00
6668;BME280;3370;47.712;9.082;2024-01-10T04:06:02;97701.59;;;-3.75;100.00
6668;BME280;3370;47.712;9.082;2024-01-10T04:08:28;97703.25;;;-3.77;100.00
6668;BME280;3370;47.712;9.082;2024-01-10T04:10:54;97696.38;;;-3.84;100.00
6668;BME280;3370;47.712;9.082;2024-01-10T04:13:20;97700.66;;;-3.80;100.00
6668;BME280;3370;47.712;9.082;2024-01-10T04:15:46;97703.34;;;-3.71;100.00
6668;BME280;3370;47.712;9.082;2024-01-10T04:18:12;97703.34;;;-3.71;100.00
6668;BME280;3370;47.712;9.082;2024-01-10T04:20:37;97706.22;;;-3.54;100.00
6668;BME280;3370;47.712;9.082;2024-01-10T04:23:03;97703.88;;;-3.46;100.00
6668;BME280;3370;47.712;9.082;2024-01-10T04:25:29;97693.84;;;-3.46;99.94
6668;BME280;3370;47.712;9.082;2024-01-10T04:27:56;97703.75;;;-3.52;100.00
6668;BME280;3370;47.712;9.082;2024-01-10T04:30:23;97697.56;;;-3.67;100.00
6668;BME280;3370;47.712;9.082;2024-01-10T04:32:48;97693.31;;;-3.71;100.00
6668;BME280;3370;47.712;9.082;2024-01-10T04:35:14;97698.34;;;-3.71;100.00
6668;BME280;3370;47.712;9.082;2024-01-10T04:37:40;97699.22;;;-3.69;100.00
6668;BME280;3370;47.712;9.082;2024-01-10T04:40:06;97697.56;;;-3.67;100.00
6668;BME280;3370;47.712;9.082;2024-01-10T04:42:32;97693.47;;;-3.63;100.00
6668;BME280;3370;47.712;9.082;2024-01-10T04:44:58;97698.69;;;-3.54;100.00
6668;BME280;3370;47.712;9.082;2024-01-10T04:47:24;97690.28;;;-3.54;100.00
6668;BME280;3370;47.712;9.082;2024-01-10T04:49:49;97705.56;;;-3.45;100.00
6668;BME280;3370;47.712;9.082;2024-01-10T04:52:15;97693.84;;;-3.46;100.00
6668;BME280;3370;47.712;9.082;2024-01-10T04:54:41;97700.28;;;-3.57;100.00
6668;BME280;3370;47.712;9.082;2024-01-10T04:57:07;97703.75;;;-3.52;100.00
6668;BME280;3370;47.712;9.082;2024-01-10T04:59:35;97706.22;;;-3.54;100.00
6668;BME280;3370;47.712;9.082;2024-01-10T05:02:01;97705.47;;;-3.51;100.00
6668;BME280;3370;47.712;9.082;2024-01-10T05:04:27;97703.75;;;-3.52;100.00
6668;BME280;3370;47.712;9.082;2024-01-10T05:06:53;97704.84;;;-3.39;100.00
6668;BME280;3370;47.712;9.082;2024-01-10T05:09:18;97707.31;;;-3.41;98.93
6668;BME280;3370;47.712;9.082;2024-01-10T05:11:45;97711.22;;;-3.57;100.00
6668;BME280;3370;47.712;9.082;2024-01-10T05:14:16;97714.72;;;-3.49;100.00
6668;BME280;3370;47.712;9.082;2024-01-10T05:16:45;97721.50;;;-3.46;100.00
6668;BME280;3370;47.712;9.082;2024-01-10T05:19:13;97723.59;;;-3.66;100.00
6668;BME280;3370;47.712;9.082;2024-01-10T05:21:39;97715.13;;;-3.70;100.00
6668;BME280;3370;47.712;9.082;2024-01-10T05:24:05;97725.03;;;-3.76;100.00
6668;BME280;3370;47.712;9.082;2024-01-10T05:26:31;97725.19;;;-3.70;100.00
6668;BME280;3370;47.712;9.082;2024-01-10T05:28:57;97723.53;;;-3.68;100.00
6668;BME280;3370;47.712;9.082;2024-01-10T05:31:23;97728.69;;;-3.61;100.00
6668;BME280;3370;47.712;9.082;2024-01-10T05:33:49;97720.28;;;-3.63;100.00
6668;BME280;3370;47.712;9.082;2024-01-10T05:36:14;97723.06;;;-3.51;100.00
6668;BME280;3370;47.712;9.082;2024-01-10T05:38:40;97725.69;;;-3.45;100.00
6668;BME280;3370;47.712;9.082;2024-01-10T05:41:07;97723.94;;;-3.49;100.00
6668;BME280;3370;47.712;9.082;2024-01-10T05:43:32;97730.72;;;-3.45;100.00
6668;BME280;3370;47.712;9.082;2024-01-10T05:45:59;97737.31;;;-3.50;100.00
6668;BME280;3370;47.712;9.082;2024-01-10T05:48:25;97738.41;;;-3.37;100.00
6668;BME280;3370;47.712;9.082;2024-01-10T05:50:51;97727.25;;;-3.50;100.00
6668;BME280;3370;47.712;9.082;2024-01-10T05:53:17;97736.53;;;-3.48;100.00
6668;BME280;3370;47.712;9.082;2024-01-10T05:55:43;97732.44;;;-3.44;100.00
6668;BME280;3370;47.712;9.082;2024-01-10T05:58:12;97733.34;;;-3.40;100.00
6668;BME280;3370;47.712;9.082;2024-01-10T06:00:38;97734.22;;;-3.38;100.00
6668;BME280;3370;47.712;9.082;2024-01-10T06:03:04;97733.41;;;-3.36;100.00
6668;BME280;3370;47.712;9.082;2024-01-10T06:05:30;97730.06;;;-3.36;100.00
6668;BME280;3370;47.712;9.082;2024-01-10T06:07:59;97725.00;;;-3.38;100.00
6668;BME280;3370;47.712;9.082;2024-01-10T06:10:25;97724.22;;;-3.34;100.00
6668;BME280;3370;47.712;9.082;2024-01-10T06:12:50;97725.84;;;-3.39;100.00
6668;BME280;3370;47.712;9.082;2024-01-10T06:15:16;97716.34;;;-3.51;100.00
6668;BME280;3370;47.712;9.082;2024-01-10T06:17:42;97710.53;;;-3.48;100.00
6668;BME280;3370;47.712;9.082;2024-01-10T06:20:09;97709.84;;;-3.42;100.00
6668;BME280;3370;47.712;9.082;2024-01-10T06:22:35;97712.28;;;-3.45;100.00
6668;BME280;3370;47.712;9.082;2024-01-10T06:25:01;97719.06;;;-3.41;100.00
6668;BME280;3370;47.712;9.082;2024-01-10T06:27:27;97716.63;;;-3.38;100.00
6668;BME280;3370;47.712;9.082;2024-01-10T06:29:53;97710.66;;;-3.42;100.00
6668;BME280;3370;47.712;9.082;2024-01-10T06:32:19;97710.94;;;-3.30;100.00
6668;BME280;3370;47.712;9.082;2024-01-10T06:34:45;97709.47;;;-3.18;99.10
6668;BME280;3370;47.712;9.082;2024-01-10T06:37:11;97724.22;;;-3.34;100.00
6668;BME280;3370;47.712;9.082;2024-01-10T06:39:36;97717.38;;;-3.41;100.00
6668;BME280;3370;47.712;9.082;2024-01-10T06:42:02;97719.16;;;-3.37;100.00
6668;BME280;3370;47.712;9.082;2024-01-10T06:44:33;97721.00;;;-3.30;99.64
6668;BME280;3370;47.712;9.082;2024-01-10T06:46:59;97717.53;;;-3.35;99.92
6668;BME280;3370;47.712;9.082;2024-01-10T06:49:25;97719.06;;;-3.41;100.00
6668;BME280;3370;47.712;9.082;2024-01-10T06:51:53;97720.78;;;-3.40;100.00
6668;BME280;3370;47.712;9.082;2024-01-10T06:54:18;97731.78;;;-3.35;100.00
6668;BME280;3370;47.712;9.082;2024-01-10T06:56:44;97734.19;;;-3.40;100.00
6668;BME280;3370;47.712;9.082;2024-01-10T06:59:10;97730.88;;;-3.39;100.00
6668;BME280;3370;47.712;9.082;2024-01-10T07:01:36;97730.31;;;-3.24;100.00
6668;BME280;3370;47.712;9.082;2024-01-10T07:04:02;97727.94;;;-3.16;98.43
6668;BME280;3370;47.712;9.082;2024-01-10T07:06:30;97737.84;;;-3.25;97.13
6668;BME280;3370;47.712;9.082;2024-01-10T07:08:56;97737.66;;;-3.35;97.92
6668;BME280;3370;47.712;9.082;2024-01-10T07:11:22;97741.81;;;-3.37;98.04
6668;BME280;3370;47.712;9.082;2024-01-10T07:13:48;97741.84;;;-3.34;99.29
6668;BME280;3370;47.712;9.082;2024-01-10T07:16:13;97749.38;;;-3.35;99.40
6668;BME280;3370;47.712;9.082;2024-01-10T07:18:44;97744.31;;;-3.37;99.83
6668;BME280;3370;47.712;9.082;2024-01-10T07:21:11;97748.31;;;-3.45;100.00
6668;BME280;3370;47.712;9.082;2024-01-10T07:23:37;97743.47;;;-3.36;100.00
6668;BME280;3370;47.712;9.082;2024-01-10T07:26:06;97744.44;;;-3.31;100.00
6668;BME280;3370;47.712;9.082;2024-01-10T07:28:32;97750.34;;;-3.29;100.00
6668;BME280;3370;47.712;9.082;2024-01-10T07:30:58;97756.25;;;-3.27;100.00
6668;BME280;3370;47.712;9.082;2024-01-10T07:33:24;97758.88;;;-3.22;100.00
6668;BME280;3370;47.712;9.082;2024-01-10T07:35:50;97760.66;;;-3.16;100.00
6668;BME280;3370;47.712;9.082;2024-01-10T07:38:16;97766.72;;;-3.08;99.80
6668;BME280;3370;47.712;9.082;2024-01-10T07:40:41;97766.72;;;-3.08;99.63
6668;BME280;3370;47.712;9.082;2024-01-10T07:43:07;97769.38;;;-3.00;100.00
6668;BME280;3370;47.712;9.082;2024-01-10T07:45:33;97766.97;;;-2.94;99.47
6668;BME280;3370;47.712;9.082;2024-01-10T07:47:59;97767.84;;;-2.94;99.10
6668;BME280;3370;47.712;9.082;2024-01-10T07:50:25;97767.75;;;-2.97;99.83
6668;BME280;3370;47.712;9.082;2024-01-10T07:52:53;97777.13;;;-2.90;99.78
6668;BME280;3370;47.712;9.082;2024-01-10T07:55:19;97775.56;;;-2.84;99.91
6668;BME280;3370;47.712;9.082;2024-01-10T07:57:45;97776.63;;;-2.73;99.35
6668;BME280;3370;47.712;9.082;2024-01-10T08:00:12;97787.56;;;-2.71;97.98
6668;BME280;3370;47.712;9.082;2024-01-10T08:02:39;97789.34;;;-2.65;97.99
6668;BME280;3370;47.712;9.082;2024-01-10T08:05:06;97788.56;;;-2.61;98.18
6668;BME280;3370;47.712;9.082;2024-01-10T08:07:36;97780.88;;;-2.69;96.20
6668;BME280;3370;47.712;9.082;2024-01-10T08:10:06;97783.63;;;-2.57;96.86
6668;BME280;3370;47.712;9.082;2024-01-10T08:12:33;97792.88;;;-2.56;97.06
6668;BME280;3370;47.712;9.082;2024-01-10T08:14:59;97791.28;;;-2.51;96.10
6668;BME280;3370;47.712;9.082;2024-01-10T08:17:24;97790.53;;;-2.45;96.88
6668;BME280;3370;47.712;9.082;2024-01-10T08:19:50;97794.81;;;-2.42;97.01
6668;BME280;3370;47.712;9.082;2024-01-10T08:22:17;97788.34;;;-2.28;97.13
6668;BME280;3370;47.712;9.082;2024-01-10T08:24:46;97785.84;;;-2.28;96.96
6668;BME280;3370;47.712;9.082;2024-01-10T08:27:12;97781.78;;;-2.18;97.08
6668;BME280;3370;47.712;9.082;2024-01-10T08:29:38;97783.53;;;-2.16;96.21
6668;BME280;3370;47.712;9.082;2024-01-10T08:32:04;97784.34;;;-2.17;95.99
6668;BME280;3370;47.712;9.082;2024-01-10T08:34:30;97790.38;;;-2.08;96.24
6668;BME280;3370;47.712;9.082;2024-01-10T08:36:56;97781.22;;;-2.02;96.32
6668;BME280;3370;47.712;9.082;2024-01-10T08:39:22;97788.84;;;-1.99;96.83
6668;BME280;3370;47.712;9.082;2024-01-10T08:41:50;97788.00;;;-1.98;96.96
6668;BME280;3370;47.712;9.082;2024-01-10T08:44:15;97786.34;;;-1.97;96.87
6668;BME280;3370;47.712;9.082;2024-01-10T08:46:41;97793.16;;;-1.91;97.05
6668;BME280;3370;47.712;9.082;2024-01-10T08:49:07;97794.88;;;-1.89;96.64
6668;BME280;3370;47.712;9.082;2024-01-10T08:51:33;97801.00;;;-1.73;96.41
6668;BME280;3370;47.712;9.082;2024-01-10T08:53:59;97802.72;;;-1.70;95.90
6668;BME280;3370;47.712;9.082;2024-01-10T08:56:25;97803.59;;;-1.70;95.69
6668;BME280;3370;47.712;9.082;2024-01-10T08:58:51;97811.13;;;-1.71;95.54
6668;BME280;3370;47.712;9.082;2024-01-10T09:01:18;97811.03;;;-1.78;94.48
6668;BME280;3370;47.712;9.082;2024-01-10T09:03:45;97810.16;;;-1.78;95.39
6668;BME280;3370;47.712;9.082;2024-01-10T09:06:11;97814.38;;;-1.79;95.69
6668;BME280;3370;47.712;9.082;2024-01-10T09:08:37;97816.16;;;-1.71;95.88
6668;BME280;3370;47.712;9.082;2024-01-10T09:11:03;97812.84;;;-1.67;95.95
6668;BME280;3370;47.712;9.082;2024-01-10T09:13:29;97814.72;;;-1.57;95.94
6668;BME280;3370;47.712;9.082;2024-01-10T09:15:55;97810.66;;;-1.46;95.67
6668;BME280;3370;47.712;9.082;2024-01-10T09:18:22;97821.72;;;-1.38;95.38
6668;BME280;3370;47.712;9.082;2024-01-10T09:20:48;97816.63;;;-1.41;95.32
6668;BME280;3370;47.712;9.082;2024-01-10T09:23:14;97819.97;;;-1.42;95.74
6668;BME280;3370;47.712;9.082;2024-01-10T09:25:40;97820.84;;;-1.40;96.03
6668;BME280;3370;47.712;9.082;2024-01-10T09:28:06;97825.06;;;-1.39;95.20
6668;BME280;3370;47.712;9.082;2024-01-10T09:30:32;97822.50;;;-1.42;95.37
6668;BME280;3370;47.712;9.082;2024-01-10T09:32:57;97824.25;;;-1.38;95.64
6668;BME280;3370;47.712;9.082;2024-01-10T09:35:24;97829.41;;;-1.30;95.94
6668;BME280;3370;47.712;9.082;2024-01-10T09:37:50;97828.66;;;-1.24;95.80
6668;BME280;3370;47.712;9.082;2024-01-10T09:40:16;97837.03;;;-1.27;96.09
6668;BME280;3370;47.712;9.082;2024-01-10T09:42:44;97840.41;;;-1.26;96.42
6668;BME280;3370;47.712;9.082;2024-01-10T09:45:10;97844.72;;;-1.16;96.40
6668;BME280;3370;47.712;9.082;2024-01-10T09:47:40;97843.97;;;-1.12;95.88
6668;BME280;3370;47.712;9.082;2024-01-10T09:50:09;97841.56;;;-1.03;95.38
6668;BME280;3370;47.712;9.082;2024-01-10T09:53:05;97834.94;;;-0.93;95.07
6668;BME280;3370;47.712;9.082;2024-01-10T09:55:37;97840.75;;;-0.99;95.64
6668;BME280;3370;47.712;9.082;2024-01-10T09:58:06;97846.63;;;-1.03;96.23
6668;BME280;3370;47.712;9.082;2024-01-10T10:00:34;97839.19;;;-0.92;95.91
6668;BME280;3370;47.712;9.082;2024-01-10T10:03:03;97835.94;;;-0.80;95.25
6668;BME280;3370;47.712;9.082;2024-01-10T10:05:30;97836.03;;;-0.74;94.85
6668;BME280;3370;47.712;9.082;2024-01-10T10:07:56;97831.91;;;-0.69;94.68
6668;BME280;3370;47.712;9.082;2024-01-10T10:10:24;97827.72;;;-0.64;94.44
6668;BME280;3370;47.712;9.082;2024-01-10T10:12:52;97833.72;;;-0.57;93.73
6668;BME280;3370;47.712;9.082;2024-01-10T10:15:22;97835.44;;;-0.53;93.30
6668;BME280;3370;47.712;9.082;2024-01-10T10:17:50;97830.31;;;-0.59;93.44
6668;BME280;3370;47.712;9.082;2024-01-10T10:20:24;97831.16;;;-0.59;93.59
6668;BME280;3370;47.712;9.082;2024-01-10T10:25:30;97824.38;;;-0.63;93.43
6668;BME280;3370;47.712;9.082;2024-01-10T10:27:57;97827.72;;;-0.67;91.54
6668;BME280;3370;47.712;9.082;2024-01-10T10:30:23;97830.16;;;-0.71;92.42
6668;BME280;3370;47.712;9.082;2024-01-10T10:32:50;97831.00;;;-0.71;90.70
6668;BME280;3370;47.712;9.082;2024-01-10T10:35:18;97825.84;;;-0.80;91.67
6668;BME280;3370;47.712;9.082;2024-01-10T10:37:43;97826.66;;;-0.83;92.85
6668;BME280;3370;47.712;9.082;2024-01-10T10:40:10;97834.22;;;-0.84;93.78
6668;BME280;3370;47.712;9.082;2024-01-10T10:42:42;97836.03;;;-0.74;94.92
6668;BME280;3370;47.712;9.082;2024-01-10T10:45:09;97832.81;;;-0.61;94.45
6668;BME280;3370;47.712;9.082;2024-01-10T10:47:41;97823.66;;;-0.54;93.96
6668;BME280;3370;47.712;9.082;2024-01-10T10:50:13;97832.16;;;-0.46;92.80
6668;BME280;3370;47.712;9.082;2024-01-10T10:52:45;97833.13;;;-0.33;89.18
6668;BME280;3370;47.712;9.082;2024-01-10T10:55:18;97834.63;;;-0.50;90.31
6668;BME280;3370;47.712;9.082;2024-01-10T10:57:48;97826.09;;;-0.60;90.74
6668;BME280;3370;47.712;9.082;2024-01-10T11:00:20;97831.88;;;-0.70;90.42
6668;BME280;3370;47.712;9.082;2024-01-10T11:02:46;97837.53;;;-0.88;93.19
6668;BME280;3370;47.712;9.082;2024-01-10T11:05:12;97833.28;;;-0.91;94.41
6668;BME280;3370;47.712;9.082;2024-01-10T11:07:41;97831.00;;;-0.71;92.96
6668;BME280;3370;47.712;9.082;2024-01-10T11:10:16;97829.34;;;-0.72;91.62
6668;BME280;3370;47.712;9.082;2024-01-10T11:22:15;97825.72;;;-0.89;92.28
6668;BME280;3370;47.712;9.082;2024-01-10T11:24:42;97834.00;;;-1.03;92.74
6668;BME280;3370;47.712;9.082;2024-01-10T11:27:13;97834.00;;;-1.03;93.27
6668;BME280;3370;47.712;9.082;2024-01-10T11:29:41;97834.81;;;-1.02;95.21
6668;BME280;3370;47.712;9.082;2024-01-10T11:32:16;97831.50;;;-1.00;96.88
6668;BME280;3370;47.712;9.082;2024-01-10T11:34:58;97824.06;;;-0.90;96.99
6668;BME280;3370;47.712;9.082;2024-01-10T11:37:48;97827.50;;;-0.82;97.13
6668;BME280;3370;47.712;9.082;2024-01-10T11:40:47;97825.91;;;-0.77;96.68
6668;BME280;3370;47.712;9.082;2024-01-10T11:43:14;97825.19;;;-0.64;95.92
6668;BME280;3370;47.712;9.082;2024-01-10T11:45:51;97815.06;;;-0.68;96.29
6668;BME280;3370;47.712;9.082;2024-01-10T11:48:29;97816.75;;;-0.66;96.86
6668;BME280;3370;47.712;9.082;2024-01-10T11:50:58;97811.03;;;-0.52;95.62
6668;BME280;3370;47.712;9.082;2024-01-10T11:53:44;97799.28;;;-0.50;95.01
6668;BME280;3370;47.712;9.082;2024-01-10T11:56:14;97798.50;;;-0.43;94.95
6668;BME280;3370;47.712;9.082;2024-01-10T11:59:16;97797.75;;;-0.36;93.75
6668;BME280;3370;47.712;9.082;2024-01-10T12:01:44;97796.88;;;-0.36;94.33
6668;BME280;3370;47.712;9.082;2024-01-10T12:04:10;97801.97;;;-0.33;94.25
6668;BME280;3370;47.712;9.082;2024-01-10T12:06:37;97798.63;;;-0.32;94.10
6668;BME280;3370;47.712;9.082;2024-01-10T12:09:04;97795.22;;;-0.33;94.13
6668;BME280;3370;47.712;9.082;2024-01-10T12:11:35;97800.31;;;-0.30;94.17
6668;BME280;3370;47.712;9.082;2024-01-10T12:14:04;97796.13;;;-0.28;94.14
6668;BME280;3370;47.712;9.082;2024-01-10T12:16:32;97790.25;;;-0.25;94.45
6668;BME280;3370;47.712;9.082;2024-01-10T12:18:58;97792.03;;;-0.18;93.23
6668;BME280;3370;47.712;9.082;2024-01-10T12:21:23;97791.19;;;-0.15;93.00
6668;BME280;3370;47.712;9.082;2024-01-10T12:23:50;97794.59;;;-0.10;93.56
6668;BME280;3370;47.712;9.082;2024-01-10T12:26:18;97788.72;;;-0.11;92.71
6668;BME280;3370;47.712;9.082;2024-01-10T12:28:58;97794.53;;;-0.16;93.49
6668;BME280;3370;47.712;9.082;2024-01-10T12:31:27;97791.22;;;-0.12;93.28
6668;BME280;3370;47.712;9.082;2024-01-10T12:33:57;97786.16;;;-0.09;92.39
6668;BME280;3370;47.712;9.082;2024-01-10T12:36:23;97782.78;;;-0.11;92.32
6668;BME280;3370;47.712;9.082;2024-01-10T12:38:49;97781.94;;;-0.12;92.35
6668;BME280;3370;47.712;9.082;2024-01-10T12:41:17;97781.97;;;-0.10;92.60
6668;BME280;3370;47.712;9.082;2024-01-10T12:43:43;97779.41;;;-0.12;92.87
6668;BME280;3370;47.712;9.082;2024-01-10T12:46:13;97774.31;;;-0.15;92.85
6668;BME280;3370;47.712;9.082;2024-01-10T12:48:41;97768.44;;;-0.14;93.29
6668;BME280;3370;47.712;9.082;2024-01-10T12:51:08;97779.38;;;-0.16;94.04
6668;BME280;3370;47.712;9.082;2024-01-10T12:53:43;97774.34;;;-0.13;92.33
6668;BME280;3370;47.712;9.082;2024-01-10T12:56:10;97777.63;;;-0.24;92.98
6668;BME280;3370;47.712;9.082;2024-01-10T12:58:41;97780.91;;;-0.34;94.58
6668;BME280;3370;47.712;9.082;2024-01-10T13:01:10;97780.91;;;-0.34;94.70
6668;BME280;3370;47.712;9.082;2024-01-10T13:03:38;97771.69;;;-0.27;94.81
6668;BME280;3370;47.712;9.082;2024-01-10T13:06:04;97776.84;;;-0.18;94.80
6668;BME280;3370;47.712;9.082;2024-01-10T13:08:31;97779.38;;;-0.16;94.57
6668;BME280;3370;47.712;9.082;2024-01-10T13:10:58;97779.38;;;-0.18;94.60
6668;BME280;3370;47.712;9.082;2024-01-10T13:13:25;97781.94;;;-0.13;94.15
6668;BME280;3370;47.712;9.082;2024-01-10T13:15:51;97778.50;;;-0.20;94.66
6668;BME280;3370;47.712;9.082;2024-01-10T13:18:17;97780.19;;;-0.19;94.43
6668;BME280;3370;47.712;9.082;2024-01-10T13:20:44;97785.22;;;-0.21;94.58
6668;BME280;3370;47.712;9.082;2024-01-10T13:23:10;97778.47;;;-0.25;94.52
6668;BME280;3370;47.712;9.082;2024-01-10T13:25:36;97781.00;;;-0.25;95.38
6668;BME280;3370;47.712;9.082;2024-01-10T13:28:05;97781.00;;;-0.25;95.33
6668;BME280;3370;47.712;9.082;2024-01-10T13:30:31;97777.59;;;-0.27;95.70